sensor_id;sensor_type;location;lat;lon;timestamp;pressure;altitude;pressure_sealevel;temperature;humidity
55217;BME280;41086;46.736;15.666;2023-08-06T00:01:09;97309.69;;;21.88;98.05
55217;BME280;41086;46.736;15.666;2023-08-06T00:03:36;97316.78;;;22.09;98.04
55217;BME280;41086;46.736;15.666;2023-08-06T00:06:06;97312.84;;;22.19;96.59
55217;BME280;41086;46.736;15.666;2023-08-06T00:08:33;97311.81;;;22.33;97.65
55217;BME280;41086;46.736;15.666;2023-08-06T00:11:00;97306.19;;;22.28;96.09
55217;BME280;41086;46.736;15.666;2023-08-06T00:13:26;97315.09;;;22.08;96.69
55217;BME280;41086;46.736;15.666;2023-08-06T00:15:53;97311.16;;;21.91;98.31
55217;BME280;41086;46.736;15.666;2023-08-06T00:18:20;97309.25;;;21.85;99.04
55217;BME280;41086;46.736;15.666;2023-08-06T00:20:47;97312.78;;;21.79;99.19
55217;BME280;41086;46.736;15.666;2023-08-06T00:23:14;97294.94;;;21.78;98.86
55217;BME280;41086;46.736;15.666;2023-08-06T00:25:40;97309.22;;;21.58;100.00
55217;BME280;41086;46.736;15.666;2023-08-06T00:28:07;97307.34;;;21.11;100.00
55217;BME280;41086;46.736;15.666;2023-08-06T00:30:34;97303.13;;;20.88;100.00
55217;BME280;41086;46.736;15.666;2023-08-06T00:33:01;97304.13;;;20.87;100.00
55217;BME280;41086;46.736;15.666;2023-08-06T00:35:29;97304.25;;;21.07;100.00
55217;BME280;41086;46.736;15.666;2023-08-06T00:37:56;97291.28;;;21.31;100.00
55217;BME280;41086;46.736;15.666;2023-08-06T00:40:23;97296.22;;;21.20;100.00
55217;BME280;41086;46.736;15.666;2023-08-06T00:42:50;97294.94;;;21.16;100.00
55217;BME280;41086;46.736;15.666;2023-08-06T00:45:17;97297.34;;;21.39;100.00
55217;BME280;41086;46.736;15.666;2023-08-06T00:47:43;97296.53;;;21.39;100.00
55217;BME280;41086;46.736;15.666;2023-08-06T00:50:10;97292.41;;;21.63;100.00
55217;BME280;41086;46.736;15.666;2023-08-06T00:52:37;97277.25;;;21.49;100.00
55217;BME280;41086;46.736;15.666;2023-08-06T00:55:04;97279.16;;;21.68;100.00
55217;BME280;41086;46.736;15.666;2023-08-06T00:57:32;97278.53;;;21.53;100.00
55217;BME280;41086;46.736;15.666;2023-08-06T00:59:58;97274.13;;;21.38;100.00
55217;BME280;41086;46.736;15.666;2023-08-06T01:02:26;97274.06;;;21.32;100.00
55217;BME280;41086;46.736;15.666;2023-08-06T01:04:52;97273.50;;;20.88;100.00
55217;BME280;41086;46.736;15.666;2023-08-06T01:15:53;97253.94;;;21.28;100.00
55217;BME280;41086;46.736;15.666;2023-08-06T01:18:21;97267.31;;;21.42;100.00
55217;BME280;41086;46.736;15.666;2023-08-06T01:20:48;97262.94;;;21.41;100.00
55217;BME280;41086;46.736;15.666;2023-08-06T01:23:16;97268.09;;;21.36;100.00
55217;BME280;41086;46.736;15.666;2023-08-06T01:31:30;97262.41;;;21.86;97.72
55217;BME280;41086;46.736;15.666;2023-08-06T01:33:59;97262.78;;;21.56;99.44
55217;BME280;41086;46.736;15.666;2023-08-06T01:36:28;97261.31;;;21.54;100.00
55217;BME280;41086;46.736;15.666;2023-08-06T01:38:55;97264.03;;;21.67;100.00
55217;BME280;41086;46.736;15.666;2023-08-06T01:41:22;97261.56;;;22.12;99.52
55217;BME280;41086;46.736;15.666;2023-08-06T01:43:48;97259.94;;;22.24;97.30
55217;BME280;41086;46.736;15.666;2023-08-06T01:46:15;97256.41;;;22.24;97.33
55217;BME280;41086;46.736;15.666;2023-08-06T01:48:42;97255.75;;;22.15;97.40
55217;BME280;41086;46.736;15.666;2023-08-06T01:51:09;97254.13;;;22.34;94.92
55217;BME280;41086;46.736;15.666;2023-08-06T01:53:36;97242.47;;;22.33;95.16
55217;BME280;41086;46.736;15.666;2023-08-06T01:56:03;97242.28;;;22.02;95.23
55217;BME280;41086;46.736;15.666;2023-08-06T01:58:30;97234.38;;;21.67;97.74
55217;BME280;41086;46.736;15.666;2023-08-06T02:00:57;97229.41;;;21.71;97.62
55217;BME280;41086;46.736;15.666;2023-08-06T02:03:23;97229.19;;;21.72;98.05
55217;BME280;41086;46.736;15.666;2023-08-06T02:05:50;97223.59;;;21.74;98.75
55217;BME280;41086;46.736;15.666;2023-08-06T02:08:21;97207.53;;;21.25;100.00
55217;BME280;41086;46.736;15.666;2023-08-06T02:10:48;97221.63;;;21.21;100.00
55217;BME280;41086;46.736;15.666;2023-08-06T02:13:15;97225.31;;;21.13;100.00
55217;BME280;41086;46.736;15.666;2023-08-06T02:15:42;97224.13;;;21.36;100.00
55217;BME280;41086;46.736;15.666;2023-08-06T02:18:10;97223.16;;;21.50;100.00
55217;BME280;41086;46.736;15.666;2023-08-06T02:20:36;97236.00;;;21.55;99.81
55217;BME280;41086;46.736;15.666;2023-08-06T02:23:03;97228.56;;;21.77;99.84
55217;BME280;41086;46.736;15.666;2023-08-06T02:25:30;97231.25;;;21.57;100.00
55217;BME280;41086;46.736;15.666;2023-08-06T02:27:58;97227.53;;;21.64;97.70
55217;BME280;41086;46.736;15.666;2023-08-06T02:30:25;97233.94;;;21.77;98.27
55217;BME280;41086;46.736;15.666;2023-08-06T02:32:52;97237.50;;;21.64;98.90
55217;BME280;41086;46.736;15.666;2023-08-06T02:35:19;97232.31;;;21.89;98.32
55217;BME280;41086;46.736;15.666;2023-08-06T02:37:46;97230.25;;;21.91;96.85
55217;BME280;41086;46.736;15.666;2023-08-06T02:40:13;97235.84;;;22.03;96.00
55217;BME280;41086;46.736;15.666;2023-08-06T02:42:40;97230.66;;;22.08;96.33
55217;BME280;41086;46.736;15.666;2023-08-06T02:45:07;97227.53;;;22.11;96.74
55217;BME280;41086;46.736;15.666;2023-08-06T02:47:34;97223.78;;;22.25;96.02
55217;BME280;41086;46.736;15.666;2023-08-06T02:50:01;97199.75;;;22.24;95.28
55217;BME280;41086;46.736;15.666;2023-08-06T02:52:29;97222.34;;;22.29;93.95
55217;BME280;41086;46.736;15.666;2023-08-06T02:54:56;97224.00;;;22.10;96.01
55217;BME280;41086;46.736;15.666;2023-08-06T02:57:29;97219.03;;;21.67;97.64
55217;BME280;41086;46.736;15.666;2023-08-06T02:59:55;97222.09;;;21.38;100.00
55217;BME280;41086;46.736;15.666;2023-08-06T03:02:23;97216.91;;;21.50;100.00
55217;BME280;41086;46.736;15.666;2023-08-06T03:04:59;97218.41;;;21.59;100.00
55217;BME280;41086;46.736;15.666;2023-08-06T03:07:31;97219.00;;;21.48;99.34
55217;BME280;41086;46.736;15.666;2023-08-06T03:10:06;97222.66;;;21.33;100.00
55217;BME280;41086;46.736;15.666;2023-08-06T03:12:34;97218.28;;;21.19;100.00
55217;BME280;41086;46.736;15.666;2023-08-06T03:15:03;97222.88;;;21.32;100.00
55217;BME280;41086;46.736;15.666;2023-08-06T03:17:30;97228.34;;;21.52;100.00
55217;BME280;41086;46.736;15.666;2023-08-06T03:19:57;97235.41;;;21.59;99.11
55217;BME280;41086;46.736;15.666;2023-08-06T03:22:25;97245.16;;;21.67;99.69
55217;BME280;41086;46.736;15.666;2023-08-06T03:24:51;97225.69;;;21.72;98.23
55217;BME280;41086;46.736;15.666;2023-08-06T03:27:21;97222.75;;;21.53;98.27
55217;BME280;41086;46.736;15.666;2023-08-06T03:29:50;97232.03;;;21.44;99.04
55217;BME280;41086;46.736;15.666;2023-08-06T03:32:19;97222.13;;;21.51;99.54
55217;BME280;41086;46.736;15.666;2023-08-06T03:34:46;97229.16;;;21.45;99.63
55217;BME280;41086;46.736;15.666;2023-08-06T03:37:14;97227.31;;;21.59;99.60
55217;BME280;41086;46.736;15.666;2023-08-06T03:39:41;97226.91;;;21.62;98.77
55217;BME280;41086;46.736;15.666;2023-08-06T03:42:08;97227.53;;;21.64;98.72
55217;BME280;41086;46.736;15.666;2023-08-06T03:44:35;97231.66;;;21.60;99.87
55217;BME280;41086;46.736;15.666;2023-08-06T03:47:03;97229.19;;;21.79;99.57
55217;BME280;41086;46.736;15.666;2023-08-06T03:49:30;97203.66;;;21.68;98.51
55217;BME280;41086;46.736;15.666;2023-08-06T03:51:57;97219.25;;;21.86;96.42
55217;BME280;41086;46.736;15.666;2023-08-06T03:54:24;97222.75;;;21.73;97.44
55217;BME280;41086;46.736;15.666;2023-08-06T03:56:51;97200.16;;;21.61;98.19
55217;BME280;41086;46.736;15.666;2023-08-06T03:59:18;97230.25;;;21.78;97.52
55217;BME280;41086;46.736;15.666;2023-08-06T04:01:46;97215.91;;;21.84;97.89
55217;BME280;41086;46.736;15.666;2023-08-06T04:04:13;97225.88;;;21.97;96.55
55217;BME280;41086;46.736;15.666;2023-08-06T04:06:39;97236.66;;;22.03;97.54
55217;BME280;41086;46.736;15.666;2023-08-06T04:09:06;97231.25;;;22.03;96.50
55217;BME280;41086;46.736;15.666;2023-08-06T04:11:33;97234.78;;;22.17;96.17
55217;BME280;41086;46.736;15.666;2023-08-06T04:14:01;97226.72;;;22.24;94.88
55217;BME280;41086;46.736;15.666;2023-08-06T04:16:29;97232.13;;;22.24;95.02
55217;BME280;41086;46.736;15.666;2023-08-06T04:18:56;97228.56;;;22.30;94.52
55217;BME280;41086;46.736;15.666;2023-08-06T04:21:24;97239.75;;;22.33;94.93
55217;BME280;41086;46.736;15.666;2023-08-06T04:23:51;97247.06;;;22.26;93.47
55217;BME280;41086;46.736;15.666;2023-08-06T04:26:18;97238.97;;;22.26;94.74
55217;BME280;41086;46.736;15.666;2023-08-06T04:28:45;97219.06;;;22.21;94.16
55217;BME280;41086;46.736;15.666;2023-08-06T04:31:12;97233.34;;;22.34;94.13
55217;BME280;41086;46.736;15.666;2023-08-06T04:33:42;97243.75;;;22.24;93.90
55217;BME280;41086;46.736;15.666;2023-08-06T04:36:11;97252.69;;;22.18;94.51
55217;BME280;41086;46.736;15.666;2023-08-06T04:38:38;97255.75;;;22.35;93.62
55217;BME280;41086;46.736;15.666;2023-08-06T04:41:05;97247.69;;;22.28;94.31
55217;BME280;41086;46.736;15.666;2023-08-06T04:43:32;97248.28;;;22.10;94.98
55217;BME280;41086;46.736;15.666;2023-08-06T04:45:59;97261.34;;;22.33;94.54
55217;BME280;41086;46.736;15.666;2023-08-06T04:48:26;97258.47;;;22.22;94.99
55217;BME280;41086;46.736;15.666;2023-08-06T04:50:54;97268.63;;;22.40;94.33
55217;BME280;41086;46.736;15.666;2023-08-06T04:53:21;97266.38;;;22.37;93.58
55217;BME280;41086;46.736;15.666;2023-08-06T04:55:48;97264.69;;;22.42;93.72
55217;BME280;41086;46.736;15.666;2023-08-06T04:58:14;97264.06;;;22.33;93.68
55217;BME280;41086;46.736;15.666;2023-08-06T05:00:41;97261.34;;;22.47;92.95
55217;BME280;41086;46.736;15.666;2023-08-06T05:03:09;97255.75;;;22.48;93.29
55217;BME280;41086;46.736;15.666;2023-08-06T05:05:36;97260.28;;;22.61;93.18
55217;BME280;41086;46.736;15.666;2023-08-06T05:08:03;97250.31;;;22.62;92.86
55217;BME280;41086;46.736;15.666;2023-08-06T05:10:30;97262.34;;;22.72;92.07
55217;BME280;41086;46.736;15.666;2023-08-06T05:12:56;97260.66;;;22.78;92.34
55217;BME280;41086;46.736;15.666;2023-08-06T05:15:23;97265.03;;;22.66;91.13
55217;BME280;41086;46.736;15.666;2023-08-06T05:17:52;97275.47;;;22.49;93.50
55217;BME280;41086;46.736;15.666;2023-08-06T05:20:20;97273.13;;;22.66;93.70
55217;BME280;41086;46.736;15.666;2023-08-06T05:22:47;97258.19;;;22.63;92.65
55217;BME280;41086;46.736;15.666;2023-08-06T05:25:14;97271.47;;;22.78;93.17
55217;BME280;41086;46.736;15.666;2023-08-06T05:27:41;97267.50;;;22.81;92.14
55217;BME280;41086;46.736;15.666;2023-08-06T05:30:08;97283.28;;;22.84;92.69
55217;BME280;41086;46.736;15.666;2023-08-06T05:32:35;97285.34;;;22.82;92.63
55217;BME280;41086;46.736;15.666;2023-08-06T05:35:02;97287.84;;;22.90;92.09
55217;BME280;41086;46.736;15.666;2023-08-06T05:37:29;97283.44;;;22.95;91.25
55217;BME280;41086;46.736;15.666;2023-08-06T05:39:56;97286.81;;;22.84;92.26
55217;BME280;41086;46.736;15.666;2023-08-06T05:42:23;97285.56;;;23.00;92.66
55217;BME280;41086;46.736;15.666;2023-08-06T05:44:49;97274.91;;;23.12;91.85
55217;BME280;41086;46.736;15.666;2023-08-06T05:47:16;97289.06;;;23.07;90.87
55217;BME280;41086;46.736;15.666;2023-08-06T05:49:43;97283.44;;;23.09;90.73
55217;BME280;41086;46.736;15.666;2023-08-06T05:52:10;97283.00;;;23.12;91.04
55217;BME280;41086;46.736;15.666;2023-08-06T05:54:36;97288.97;;;23.20;90.94
55217;BME280;41086;46.736;15.666;2023-08-06T05:57:04;97275.91;;;23.17;90.19
55217;BME280;41086;46.736;15.666;2023-08-06T05:59:31;97285.47;;;23.20;90.70
55217;BME280;41086;46.736;15.666;2023-08-06T06:01:58;97289.22;;;23.19;89.72
55217;BME280;41086;46.736;15.666;2023-08-06T06:04:25;97287.31;;;23.26;89.69
55217;BME280;41086;46.736;15.666;2023-08-06T06:06:51;97289.59;;;23.22;89.75
55217;BME280;41086;46.736;15.666;2023-08-06T06:09:18;97285.69;;;23.12;89.65
55217;BME280;41086;46.736;15.666;2023-08-06T06:11:45;97289.50;;;22.97;89.73
55217;BME280;41086;46.736;15.666;2023-08-06T06:14:12;97296.56;;;22.92;89.38
55217;BME280;41086;46.736;15.666;2023-08-06T06:16:39;97281.47;;;22.44;89.54
55217;BME280;41086;46.736;15.666;2023-08-06T06:19:05;97311.19;;;22.18;91.86
55217;BME280;41086;46.736;15.666;2023-08-06T06:21:32;97308.47;;;22.18;95.58
55217;BME280;41086;46.736;15.666;2023-08-06T06:23:59;97314.75;;;22.31;95.26
55217;BME280;41086;46.736;15.666;2023-08-06T06:26:26;97306.00;;;22.36;95.04
55217;BME280;41086;46.736;15.666;2023-08-06T06:28:52;97299.31;;;22.12;94.33
55217;BME280;41086;46.736;15.666;2023-08-06T06:31:19;97304.75;;;22.19;95.21
55217;BME280;41086;46.736;15.666;2023-08-06T06:33:46;97299.56;;;22.37;94.89
55217;BME280;41086;46.736;15.666;2023-08-06T06:36:13;97297.00;;;22.69;94.93
55217;BME280;41086;46.736;15.666;2023-08-06T06:38:40;97299.50;;;22.97;93.00
55217;BME280;41086;46.736;15.666;2023-08-06T06:41:07;97302.81;;;22.99;92.45
55217;BME280;41086;46.736;15.666;2023-08-06T06:43:33;97307.78;;;23.02;90.38
55217;BME280;41086;46.736;15.666;2023-08-06T06:46:00;97311.13;;;22.97;90.75
55217;BME280;41086;46.736;15.666;2023-08-06T06:48:29;97306.13;;;22.88;91.69
55217;BME280;41086;46.736;15.666;2023-08-06T06:50:56;97311.59;;;22.41;93.14
55217;BME280;41086;46.736;15.666;2023-08-06T06:53:23;97311.81;;;22.26;93.20
55217;BME280;41086;46.736;15.666;2023-08-06T06:55:55;97314.69;;;22.58;94.12
55217;BME280;41086;46.736;15.666;2023-08-06T06:58:22;97316.59;;;22.51;92.75
55217;BME280;41086;46.736;15.666;2023-08-06T07:00:48;97311.41;;;22.56;92.48
55217;BME280;41086;46.736;15.666;2023-08-06T07:03:15;97305.78;;;22.44;94.46
55217;BME280;41086;46.736;15.666;2023-08-06T07:05:42;97319.50;;;22.56;93.14
55217;BME280;41086;46.736;15.666;2023-08-06T07:08:09;97312.53;;;22.93;93.13
55217;BME280;41086;46.736;15.666;2023-08-06T07:10:36;97315.88;;;22.95;91.25
55217;BME280;41086;46.736;15.666;2023-08-06T07:13:03;97315.88;;;23.02;91.52
55217;BME280;41086;46.736;15.666;2023-08-06T07:15:30;97313.78;;;22.91;91.03
55217;BME280;41086;46.736;15.666;2023-08-06T07:17:57;97308.81;;;23.01;91.01
55217;BME280;41086;46.736;15.666;2023-08-06T07:20:23;97320.88;;;22.98;91.00
55217;BME280;41086;46.736;15.666;2023-08-06T07:22:50;97310.16;;;22.45;88.42
55217;BME280;41086;46.736;15.666;2023-08-06T07:25:17;97310.94;;;22.72;88.70
55217;BME280;41086;46.736;15.666;2023-08-06T07:27:44;97315.97;;;22.42;89.38
55217;BME280;41086;46.736;15.666;2023-08-06T07:30:10;97318.41;;;22.77;87.00
55217;BME280;41086;46.736;15.666;2023-08-06T07:32:37;97321.31;;;22.09;89.80
55217;BME280;41086;46.736;15.666;2023-08-06T07:35:05;97319.25;;;21.98;90.37
55217;BME280;41086;46.736;15.666;2023-08-06T07:37:32;97315.94;;;22.09;90.84
55217;BME280;41086;46.736;15.666;2023-08-06T07:39:59;97309.88;;;21.74;91.45
55217;BME280;41086;46.736;15.666;2023-08-06T07:42:26;97312.81;;;21.99;89.82
55217;BME280;41086;46.736;15.666;2023-08-06T07:44:57;97301.16;;;21.72;90.86
55217;BME280;41086;46.736;15.666;2023-08-06T07:47:25;97300.53;;;21.69;90.50
55217;BME280;41086;46.736;15.666;2023-08-06T07:49:51;97287.66;;;21.65;91.33
55217;BME280;41086;46.736;15.666;2023-08-06T07:52:18;97294.31;;;21.69;90.89
55217;BME280;41086;46.736;15.666;2023-08-06T07:54:45;97302.22;;;21.77;90.50
55217;BME280;41086;46.736;15.666;2023-08-06T07:57:12;97297.88;;;22.03;90.51
55217;BME280;41086;46.736;15.666;2023-08-06T07:59:40;97301.84;;;22.20;89.56
55217;BME280;41086;46.736;15.666;2023-08-06T08:02:07;97286.25;;;22.16;88.66
55217;BME280;41086;46.736;15.666;2023-08-06T08:04:33;97305.56;;;22.59;86.68
55217;BME280;41086;46.736;15.666;2023-08-06T08:07:00;97306.41;;;22.13;87.42
55217;BME280;41086;46.736;15.666;2023-08-06T08:09:27;97305.16;;;22.35;84.72
55217;BME280;41086;46.736;15.666;2023-08-06T08:11:54;97307.66;;;22.37;86.71
55217;BME280;41086;46.736;15.666;2023-08-06T08:14:24;97304.94;;;21.97;86.76
55217;BME280;41086;46.736;15.666;2023-08-06T08:16:51;97301.00;;;22.13;86.73
55217;BME280;41086;46.736;15.666;2023-08-06T08:19:18;97315.09;;;22.02;86.84
55217;BME280;41086;46.736;15.666;2023-08-06T08:21:45;97309.50;;;22.50;88.55
55217;BME280;41086;46.736;15.666;2023-08-06T08:24:12;97310.97;;;22.46;86.40
55217;BME280;41086;46.736;15.666;2023-08-06T08:26:39;97310.75;;;22.67;85.17
55217;BME280;41086;46.736;15.666;2023-08-06T08:29:05;97312.81;;;22.72;85.62
55217;BME280;41086;46.736;15.666;2023-08-06T08:31:32;97317.06;;;23.19;85.45
55217;BME280;41086;46.736;15.666;2023-08-06T08:34:05;97302.13;;;23.55;83.10
55217;BME280;41086;46.736;15.666;2023-08-06T08:36:32;97309.56;;;23.66;79.88
55217;BME280;41086;46.736;15.666;2023-08-06T08:38:59;97307.94;;;23.97;80.73
55217;BME280;41086;46.736;15.666;2023-08-06T08:41:29;97316.22;;;23.64;81.74
55217;BME280;41086;46.736;15.666;2023-08-06T08:43:58;97305.78;;;23.81;79.75
55217;BME280;41086;46.736;15.666;2023-08-06T08:46:32;97304.81;;;23.62;80.78
55217;BME280;41086;46.736;15.666;2023-08-06T08:49:01;97316.50;;;23.94;81.23
55217;BME280;41086;46.736;15.666;2023-08-06T08:51:29;97314.91;;;23.80;80.71
55217;BME280;41086;46.736;15.666;2023-08-06T08:53:56;97311.66;;;23.64;80.64
55217;BME280;41086;46.736;15.666;2023-08-06T08:56:24;97320.81;;;23.63;81.30
55217;BME280;41086;46.736;15.666;2023-08-06T08:58:51;97317.53;;;23.55;81.51
55217;BME280;41086;46.736;15.666;2023-08-06T09:01:21;97318.84;;;23.45;83.10
55217;BME280;41086;46.736;15.666;2023-08-06T09:03:49;97324.25;;;23.39;83.18
55217;BME280;41086;46.736;15.666;2023-08-06T09:06:17;97326.72;;;23.92;82.42
55217;BME280;41086;46.736;15.666;2023-08-06T09:09:06;97331.34;;;24.10;81.59
55217;BME280;41086;46.736;15.666;2023-08-06T09:11:37;97333.03;;;23.79;80.01
55217;BME280;41086;46.736;15.666;2023-08-06T09:14:07;97326.00;;;23.65;84.17
55217;BME280;41086;46.736;15.666;2023-08-06T09:16:35;97339.56;;;23.07;82.76
55217;BME280;41086;46.736;15.666;2023-08-06T09:19:09;97342.44;;;23.12;85.10
55217;BME280;41086;46.736;15.666;2023-08-06T09:21:37;97341.59;;;23.25;85.54
55217;BME280;41086;46.736;15.666;2023-08-06T09:24:11;97344.13;;;23.58;85.47
55217;BME280;41086;46.736;15.666;2023-08-06T09:26:44;97345.09;;;23.83;84.61
55217;BME280;41086;46.736;15.666;2023-08-06T09:29:11;97351.81;;;24.06;83.85
55217;BME280;41086;46.736;15.666;2023-08-06T09:31:45;97347.19;;;24.38;81.65
55217;BME280;41086;46.736;15.666;2023-08-06T09:34:21;97341.41;;;24.60;81.05
55217;BME280;41086;46.736;15.666;2023-08-06T09:36:52;97345.22;;;24.52;78.23
55217;BME280;41086;46.736;15.666;2023-08-06T09:39:30;97338.59;;;24.73;77.92
55217;BME280;41086;46.736;15.666;2023-08-06T09:41:59;97352.06;;;24.80;77.65
55217;BME280;41086;46.736;15.666;2023-08-06T09:44:27;97352.13;;;24.91;78.79
55217;BME280;41086;46.736;15.666;2023-08-06T09:46:56;97343.28;;;25.03;80.39
55217;BME280;41086;46.736;15.666;2023-08-06T09:49:41;97347.41;;;25.05;80.33
55217;BME280;41086;46.736;15.666;2023-08-06T09:52:13;97352.03;;;25.41;76.97
55217;BME280;41086;46.736;15.666;2023-08-06T09:54:40;97348.75;;;25.70;73.74
55217;BME280;41086;46.736;15.666;2023-08-06T09:57:07;97354.19;;;25.70;75.67
55217;BME280;41086;46.736;15.666;2023-08-06T09:59:35;97326.06;;;25.64;76.50
55217;BME280;41086;46.736;15.666;2023-08-06T10:02:13;97339.50;;;25.59;77.76
55217;BME280;41086;46.736;15.666;2023-08-06T10:04:44;97352.84;;;26.21;76.92
55217;BME280;41086;46.736;15.666;2023-08-06T10:07:21;97354.16;;;26.30;75.35
55217;BME280;41086;46.736;15.666;2023-08-06T10:09:49;97368.25;;;26.39;74.18
55217;BME280;41086;46.736;15.666;2023-08-06T10:12:16;97370.16;;;26.50;73.95
55217;BME280;41086;46.736;15.666;2023-08-06T10:14:46;97370.72;;;26.40;72.98
55217;BME280;41086;46.736;15.666;2023-08-06T10:17:14;97367.44;;;26.50;71.78
55217;BME280;41086;46.736;15.666;2023-08-06T10:19:41;97378.50;;;26.25;71.14
55217;BME280;41086;46.736;15.666;2023-08-06T10:24:54;97381.19;;;26.67;69.18
55217;BME280;41086;46.736;15.666;2023-08-06T10:27:40;97381.19;;;26.55;67.03
55217;BME280;41086;46.736;15.666;2023-08-06T10:30:30;97375.75;;;27.02;67.28
55217;BME280;41086;46.736;15.666;2023-08-06T10:32:59;97386.75;;;27.07;65.58
55217;BME280;41086;46.736;15.666;2023-08-06T10:35:31;97390.78;;;27.16;62.13
55217;BME280;41086;46.736;15.666;2023-08-06T10:38:19;97389.09;;;27.15;60.55
55217;BME280;41086;46.736;15.666;2023-08-06T10:43:28;97395.63;;;27.26;62.73
55217;BME280;41086;46.736;15.666;2023-08-06T10:45:57;97396.06;;;27.47;64.32
55217;BME280;41086;46.736;15.666;2023-08-06T10:48:34;97389.75;;;27.70;63.98
55217;BME280;41086;46.736;15.666;2023-08-06T10:51:02;97400.09;;;26.97;59.17
55217;BME280;41086;46.736;15.666;2023-08-06T10:53:29;97397.75;;;27.12;65.18
55217;BME280;41086;46.736;15.666;2023-08-06T10:56:00;97407.97;;;27.57;64.97
55217;BME280;41086;46.736;15.666;2023-08-06T10:58:33;97406.75;;;27.89;62.52
55217;BME280;41086;46.736;15.666;2023-08-06T11:01:00;97402.28;;;28.11;63.15
55217;BME280;41086;46.736;15.666;2023-08-06T11:03:28;97396.72;;;28.35;61.63
55217;BME280;41086;46.736;15.666;2023-08-06T11:05:55;97403.31;;;27.93;59.05
55217;BME280;41086;46.736;15.666;2023-08-06T11:08:25;97397.16;;;28.15;58.82
55217;BME280;41086;46.736;15.666;2023-08-06T11:10:52;97393.72;;;28.36;59.09
55217;BME280;41086;46.736;15.666;2023-08-06T11:13:29;97399.84;;;29.06;57.96
55217;BME280;41086;46.736;15.666;2023-08-06T11:15:57;97396.13;;;29.34;57.11
55217;BME280;41086;46.736;15.666;2023-08-06T11:18:25;97396.78;;;29.63;56.26
55217;BME280;41086;46.736;15.666;2023-08-06T11:20:51;97399.69;;;29.73;54.31
55217;BME280;41086;46.736;15.666;2023-08-06T11:23:18;97392.97;;;30.08;54.09
55217;BME280;41086;46.736;15.666;2023-08-06T11:25:45;97395.31;;;30.21;55.46
55217;BME280;41086;46.736;15.666;2023-08-06T11:28:12;97395.31;;;30.21;56.09
55217;BME280;41086;46.736;15.666;2023-08-06T11:30:40;97395.09;;;29.79;57.39
55217;BME280;41086;46.736;15.666;2023-08-06T11:33:07;97389.00;;;29.72;55.96
55217;BME280;41086;46.736;15.666;2023-08-06T11:35:35;97391.31;;;30.07;56.73
55217;BME280;41086;46.736;15.666;2023-08-06T11:38:02;97393.16;;;30.01;56.75
55217;BME280;41086;46.736;15.666;2023-08-06T11:40:30;97393.16;;;30.01;54.73
55217;BME280;41086;46.736;15.666;2023-08-06T11:42:58;97396.72;;;29.58;51.66
55217;BME280;41086;46.736;15.666;2023-08-06T11:45:25;97381.84;;;29.66;51.42
55217;BME280;41086;46.736;15.666;2023-08-06T11:47:52;97390.66;;;30.22;43.38
55217;BME280;41086;46.736;15.666;2023-08-06T11:50:23;97387.09;;;29.94;47.37
55217;BME280;41086;46.736;15.666;2023-08-06T11:52:55;97384.94;;;30.83;49.66
55217;BME280;41086;46.736;15.666;2023-08-06T11:55:24;97376.81;;;31.35;50.25
55217;BME280;41086;46.736;15.666;2023-08-06T11:57:51;97399.84;;;32.03;48.89
55217;BME280;41086;46.736;15.666;2023-08-06T12:00:18;97388.22;;;31.75;44.66
55217;BME280;41086;46.736;15.666;2023-08-06T12:02:49;97385.91;;;32.09;43.99
55217;BME280;41086;46.736;15.666;2023-08-06T12:05:18;97385.91;;;32.14;46.22
55217;BME280;41086;46.736;15.666;2023-08-06T12:07:48;97385.34;;;32.07;44.90
55217;BME280;41086;46.736;15.666;2023-08-06T12:10:16;97378.78;;;32.03;45.50
55217;BME280;41086;46.736;15.666;2023-08-06T12:12:43;97386.22;;;32.28;44.29
55217;BME280;41086;46.736;15.666;2023-08-06T12:15:10;97379.03;;;32.01;44.59
55217;BME280;41086;46.736;15.666;2023-08-06T12:17:38;97373.50;;;31.33;44.74
55217;BME280;41086;46.736;15.666;2023-08-06T12:20:06;97383.69;;;31.38;44.03
55217;BME280;41086;46.736;15.666;2023-08-06T12:22:34;97383.06;;;31.89;44.06
55217;BME280;41086;46.736;15.666;2023-08-06T12:25:03;97381.25;;;32.15;42.04
55217;BME280;41086;46.736;15.666;2023-08-06T12:27:30;97394.84;;;31.84;39.60
55217;BME280;41086;46.736;15.666;2023-08-06T12:29:57;97391.19;;;31.58;40.60
55217;BME280;41086;46.736;15.666;2023-08-06T12:32:23;97398.38;;;31.32;39.61
55217;BME280;41086;46.736;15.666;2023-08-06T12:34:50;97401.63;;;31.24;38.92
55217;BME280;41086;46.736;15.666;2023-08-06T12:37:19;97399.50;;;30.94;40.63
55217;BME280;41086;46.736;15.666;2023-08-06T12:39:46;97397.06;;;30.92;41.78
55217;BME280;41086;46.736;15.666;2023-08-06T12:42:13;97386.09;;;30.87;41.57
55217;BME280;41086;46.736;15.666;2023-08-06T12:44:40;97396.38;;;30.80;42.05
55217;BME280;41086;46.736;15.666;2023-08-06T12:47:07;97395.47;;;31.01;41.42
55217;BME280;41086;46.736;15.666;2023-08-06T12:49:34;97387.28;;;31.01;40.71
55217;BME280;41086;46.736;15.666;2023-08-06T12:52:01;97391.25;;;31.26;42.25
55217;BME280;41086;46.736;15.666;2023-08-06T12:54:30;97405.19;;;31.19;40.20
55217;BME280;41086;46.736;15.666;2023-08-06T12:57:03;97400.44;;;31.09;40.95
55217;BME280;41086;46.736;15.666;2023-08-06T12:59:30;97408.66;;;31.09;42.49
55217;BME280;41086;46.736;15.666;2023-08-06T13:01:57;97409.06;;;31.76;42.56
55217;BME280;41086;46.736;15.666;2023-08-06T13:04:24;97409.44;;;32.05;40.74
55217;BME280;41086;46.736;15.666;2023-08-06T13:06:51;97407.84;;;32.24;40.11
55217;BME280;41086;46.736;15.666;2023-08-06T13:09:19;97401.63;;;32.50;40.53
55217;BME280;41086;46.736;15.666;2023-08-06T13:11:45;97396.44;;;32.74;37.93